Knight Air

Knight Air knights of the virtual airways



 METAR AND TAF INFORMATION
METAR FOR LMML
ADDS - METARS form results

(0110 UTC 18 August 2019)
Data provider http://aviationweather.gov/metar/data/
 
METAR text: LMML 180045Z 05003KT CAVOK 25/21 Q1016 NOSIG
Conditions at: LMML (LUQA/MALTA , MT) observed 0045 UTC 18 August 2019
Temperature: 25.0°C (77°F)
Dewpoint: 21.0°C (70°F) [RH = 79%]
Pressure (altimeter): 30.00 inches Hg (1016.0 mb)
Winds: from the NE (50 degrees) at 3 MPH (3 knots; 1.5 m/s)
Visibility: 6 or more miles (10+ km)
Ceiling: ceiling and visibility are OK
Clouds: unknown
Weather: no significant weather observed at this time

METAR text: LMML 180015Z 05005KT 9999 FEW019 25/21 Q1016 NOSIG
Conditions at: LMML (LUQA/MALTA , MT) observed 0015 UTC 18 August 2019
Temperature: 25.0°C (77°F)
Dewpoint: 21.0°C (70°F) [RH = 79%]
Pressure (altimeter): 30.00 inches Hg (1016.0 mb)
Winds: from the NE (50 degrees) at 6 MPH (5 knots; 2.6 m/s)
Visibility: 6 or more miles (10+ km)
Ceiling: at least 12,000 feet AGL
Clouds: few clouds at 1900 feet AGL
Weather: no significant weather observed at this time

Forecast for: LMML (LUQA/MALTA , MT)
Text: TAF LMML 172300Z 1800/1824 05006KT 9999 FEW020
Forecast period: 0000 UTC 18 August 2019 to 0000 UTC 19 August 2019
Forecast type: FROM: standard forecast or significant change
Winds: from the NE (50 degrees) at 7 MPH (6 knots; 3.1 m/s)
Visibility: 6 or more miles 10+ km)
Ceiling: at least 12,000 feet AGL
Clouds: few clouds at 2000 feet AGL
Weather: no significant weather forecast for this period

 AIRPORT MAP

 RUNWAY INFORMATION
Runway 05 Runway length 7799 ft Runway width 148 ft
Runway elevation 297 ft Runway displaced threshold 0 ft Runway heading 56
Runway 23 Runway length 7799 ft Runway width 148 ft
Runway elevation 247 ft Runway displaced threshold 0 ft Runway heading 236
Runway 13 Runway length 11627 ft Runway width 197 ft
Runway elevation 256 ft Runway displaced threshold 0 ft Runway heading 135
Runway 31 Runway length 11627 ft Runway width 197 ft
Runway elevation 230 ft Runway displaced threshold 620 ft Runway heading 315

 AIRPORT FREQUENCIES
Type APP Name APP Frequency 128.15 MHZ
Type Distance R Name Frequency 130.975 MHZ
Type Ground Name Ground Frequency 121.6 MHZ
Type Leaving Name Frequency 123.625 MHZ
Type Runway Name Runway Frequency 138.1 MHZ
Type Volmet Name Frequency 126.8 MHZ
Type Weather Name WX Frequency 127.4 MHZ

 AIRPORT NEAR NAVIGATION AIDS
Type DME Name Malta Frequency 110500 KHZ
Type DME Name Luqa Frequency 109700 KHZ
Type NDB Name Luqa Frequency 416 KHZ
Type NDB Name Malta Frequency 395 KHZ